createdAt,value
2022-09-25T00:00:50.517Z,80
2022-09-25T00:02:51.045Z,80
2022-09-25T00:04:50.380Z,80
2022-09-25T00:06:50.478Z,80
2022-09-25T00:08:50.320Z,80
2022-09-25T00:10:50.131Z,80
2022-09-25T00:12:50.876Z,81
2022-09-25T00:14:50.810Z,81
2022-09-25T00:16:50.516Z,81
2022-09-25T00:18:50.279Z,81
2022-09-25T00:20:50.165Z,81
2022-09-25T00:22:50.837Z,81
2022-09-25T00:24:50.566Z,81
2022-09-25T00:26:50.869Z,81
2022-09-25T00:28:50.653Z,81
2022-09-25T00:30:50.794Z,81
2022-09-25T00:32:50.786Z,81
2022-09-25T00:34:50.549Z,81
2022-09-25T00:36:50.843Z,81
2022-09-25T00:38:50.589Z,81
2022-09-25T00:40:51.085Z,81
2022-09-25T00:42:50.141Z,81
2022-09-25T00:44:50.858Z,81
2022-09-25T00:46:50.821Z,80
2022-09-25T00:48:50.609Z,81
2022-09-25T00:50:50.440Z,81
2022-09-25T00:52:50.465Z,81
2022-09-25T00:54:50.216Z,81
2022-09-25T00:56:50.201Z,81
2022-09-25T00:58:51.037Z,81
2022-09-25T01:00:50.605Z,81
2022-09-25T01:02:50.865Z,81
2022-09-25T01:04:50.502Z,81
2022-09-25T01:06:50.872Z,81
2022-09-25T01:08:50.732Z,81
2022-09-25T01:10:50.592Z,81
2022-09-25T01:12:50.395Z,81
2022-09-25T01:14:50.326Z,81
2022-09-25T01:16:50.854Z,81
2022-09-25T01:18:50.958Z,81
2022-09-25T01:20:50.821Z,81
2022-09-25T01:22:50.609Z,81
2022-09-25T01:24:50.621Z,81
2022-09-25T01:26:50.800Z,81
2022-09-25T01:28:50.487Z,81
2022-09-25T01:30:50.804Z,80
2022-09-25T01:32:50.556Z,80
2022-09-25T01:34:50.729Z,81
2022-09-25T01:36:50.874Z,81
2022-09-25T01:38:50.579Z,81
2022-09-25T01:40:50.873Z,81
2022-09-25T01:42:50.768Z,81
2022-09-25T01:44:50.645Z,81
2022-09-25T01:46:50.745Z,81
2022-09-25T01:48:50.499Z,81
2022-09-25T01:50:50.267Z,81
2022-09-25T01:52:50.178Z,81
2022-09-25T01:54:50.928Z,81
2022-09-25T01:56:50.905Z,81
2022-09-25T01:58:50.688Z,81
2022-09-25T02:00:50.509Z,81
2022-09-25T02:02:51.084Z,81
2022-09-25T02:04:50.437Z,81
2022-09-25T02:06:50.588Z,81
2022-09-25T02:08:50.704Z,81
2022-09-25T02:10:50.542Z,81
2022-09-25T02:12:50.347Z,81
2022-09-25T02:14:50.066Z,81
2022-09-25T02:16:51.295Z,81
2022-09-25T02:18:50.128Z,81
2022-09-25T02:20:50.786Z,82
2022-09-25T02:22:50.358Z,82
2022-09-25T02:24:50.561Z,82
2022-09-25T02:26:50.690Z,82
2022-09-25T02:28:50.752Z,82
2022-09-25T02:30:51.068Z,82
2022-09-25T02:32:50.756Z,82
2022-09-25T02:34:50.154Z,82
2022-09-25T02:36:50.507Z,82
2022-09-25T02:38:50.352Z,82
2022-09-25T02:40:50.569Z,83
2022-09-25T02:42:50.508Z,82
2022-09-25T02:44:50.479Z,82
2022-09-25T02:46:50.781Z,82
2022-09-25T02:48:50.657Z,82
2022-09-25T02:50:50.654Z,82
2022-09-25T02:52:50.499Z,82
2022-09-25T02:54:50.272Z,82
2022-09-25T02:56:50.557Z,82
2022-09-25T02:58:50.402Z,82
2022-09-25T03:00:50.606Z,82
2022-09-25T03:02:53.399Z,82
2022-09-25T03:04:50.926Z,82
2022-09-25T03:06:50.111Z,82
2022-09-25T03:08:50.890Z,82
2022-09-25T03:10:50.791Z,82
2022-09-25T03:12:50.885Z,82
2022-09-25T03:14:50.728Z,82
2022-09-25T03:16:50.455Z,82
2022-09-25T03:18:50.257Z,82
2022-09-25T03:20:50.881Z,82
2022-09-25T03:22:50.786Z,82
2022-09-25T03:24:50.592Z,82
2022-09-25T03:26:50.714Z,82
2022-09-25T03:28:50.576Z,82
2022-09-25T03:30:50.986Z,82
2022-09-25T03:32:50.973Z,82
2022-09-25T03:34:50.354Z,82
2022-09-25T03:36:50.533Z,82
2022-09-25T03:38:50.557Z,82
2022-09-25T03:40:51.012Z,82
2022-09-25T03:42:50.941Z,82
2022-09-25T03:44:50.785Z,82
2022-09-25T03:46:50.860Z,82
2022-09-25T03:48:50.762Z,82
2022-09-25T03:50:50.519Z,82
2022-09-25T03:52:50.308Z,82
2022-09-25T03:54:50.102Z,82
2022-09-25T03:56:50.097Z,82
2022-09-25T03:58:50.823Z,82
2022-09-25T04:00:50.759Z,82
2022-09-25T04:02:50.855Z,82
2022-09-25T04:04:50.300Z,82
2022-09-25T04:06:50.593Z,83
2022-09-25T04:08:50.531Z,83
2022-09-25T04:10:50.375Z,83
2022-09-25T04:12:50.240Z,83
2022-09-25T04:14:51.015Z,83
2022-09-25T04:16:50.656Z,83
2022-09-25T04:18:50.597Z,83
2022-09-25T04:20:50.399Z,83
2022-09-25T04:22:50.259Z,83
2022-09-25T04:24:51.026Z,83
2022-09-25T04:26:50.250Z,83
2022-09-25T04:28:50.088Z,83
2022-09-25T04:30:50.930Z,83
2022-09-25T04:32:50.797Z,83
2022-09-25T04:34:50.131Z,83
2022-09-25T04:36:50.167Z,83
2022-09-25T04:38:50.034Z,83
2022-09-25T04:40:51.257Z,83
2022-09-25T04:42:50.151Z,83
2022-09-25T04:44:50.988Z,84
2022-09-25T04:46:50.584Z,84
2022-09-25T04:48:50.516Z,83
2022-09-25T04:50:50.562Z,83
2022-09-25T04:52:50.296Z,83
2022-09-25T04:54:51.015Z,83
2022-09-25T04:56:50.144Z,83
2022-09-25T04:58:50.662Z,83
2022-09-25T05:00:50.921Z,83
2022-09-25T05:02:51.431Z,83
2022-09-25T05:04:50.822Z,84
2022-09-25T05:06:50.970Z,84
2022-09-25T05:08:50.952Z,84
2022-09-25T05:10:50.713Z,84
2022-09-25T05:12:50.521Z,84
2022-09-25T05:14:50.315Z,84
2022-09-25T05:16:50.534Z,84
2022-09-25T05:18:50.434Z,84
2022-09-25T05:20:50.467Z,84
2022-09-25T05:22:50.330Z,84
2022-09-25T05:24:50.931Z,83
2022-09-25T05:26:50.342Z,83
2022-09-25T05:28:50.354Z,83
2022-09-25T05:30:50.148Z,83
2022-09-25T05:32:50.866Z,83
2022-09-25T05:34:51.097Z,83
2022-09-25T05:36:50.111Z,83
2022-09-25T05:38:50.741Z,83
2022-09-25T05:40:51.019Z,83
2022-09-25T05:42:50.938Z,83
2022-09-25T05:44:50.864Z,83
2022-09-25T05:46:50.030Z,83
2022-09-25T05:48:50.813Z,83
2022-09-25T05:50:50.698Z,83
2022-09-25T05:52:50.525Z,83
2022-09-25T05:54:50.595Z,83
2022-09-25T05:56:50.893Z,83
2022-09-25T05:58:50.723Z,83
2022-09-25T06:00:50.526Z,83
2022-09-25T06:02:50.664Z,83
2022-09-25T06:04:50.849Z,83
2022-09-25T06:06:50.078Z,83
2022-09-25T06:08:50.868Z,83
2022-09-25T06:10:50.603Z,83
2022-09-25T06:12:50.628Z,83
2022-09-25T06:14:50.338Z,83
2022-09-25T06:16:50.401Z,83
2022-09-25T06:18:50.299Z,83
2022-09-25T06:20:50.280Z,83
2022-09-25T06:22:50.102Z,83
2022-09-25T06:24:50.042Z,83
2022-09-25T06:26:50.183Z,83
2022-09-25T06:28:50.078Z,84
2022-09-25T06:30:51.442Z,84
2022-09-25T06:32:50.438Z,83
2022-09-25T06:34:50.846Z,83
2022-09-25T06:36:50.983Z,83
2022-09-25T06:38:50.962Z,83
2022-09-25T06:40:51.268Z,83
2022-09-25T06:42:50.136Z,83
2022-09-25T06:44:50.967Z,83
2022-09-25T06:46:51.485Z,84
2022-09-25T06:48:50.322Z,83
2022-09-25T06:50:50.330Z,83
2022-09-25T06:52:50.072Z,83
2022-09-25T06:54:50.893Z,83
2022-09-25T06:56:50.376Z,83
2022-09-25T06:58:50.066Z,83
2022-09-25T07:00:50.908Z,83
2022-09-25T07:02:51.258Z,83
2022-09-25T07:04:50.116Z,83
2022-09-25T07:06:50.345Z,83
2022-09-25T07:08:50.220Z,83
2022-09-25T07:10:50.050Z,83
2022-09-25T07:12:50.921Z,83
2022-09-25T07:14:50.893Z,83
2022-09-25T07:16:50.818Z,83
2022-09-25T07:18:50.702Z,83
2022-09-25T07:20:50.719Z,83
2022-09-25T07:22:50.826Z,83
2022-09-25T07:24:50.602Z,83
2022-09-25T07:26:50.785Z,83
2022-09-25T07:28:50.765Z,83
2022-09-25T07:30:51.245Z,83
2022-09-25T07:32:50.149Z,83
2022-09-25T07:34:50.379Z,84
2022-09-25T07:36:50.454Z,84
2022-09-25T07:38:50.393Z,84
2022-09-25T07:40:50.995Z,84
2022-09-25T07:42:50.985Z,84
2022-09-25T07:44:52.974Z,83
2022-09-25T07:46:50.818Z,84
2022-09-25T07:48:50.900Z,83
2022-09-25T07:50:50.796Z,83
2022-09-25T07:52:50.584Z,83
2022-09-25T07:54:50.429Z,83
2022-09-25T07:56:50.537Z,83
2022-09-25T07:58:50.356Z,83
2022-09-25T08:00:50.185Z,83
2022-09-25T08:02:51.301Z,82
2022-09-25T08:04:50.762Z,83
2022-09-25T08:06:50.081Z,83
2022-09-25T08:08:50.910Z,83
2022-09-25T08:10:50.755Z,83
2022-09-25T08:12:50.539Z,83
2022-09-25T08:14:50.451Z,83
2022-09-25T08:16:50.760Z,82
2022-09-25T08:18:50.435Z,82
2022-09-25T08:20:50.229Z,82
2022-09-25T08:22:50.041Z,82
2022-09-25T08:24:51.074Z,82
2022-09-25T08:26:50.239Z,82
2022-09-25T08:28:50.197Z,82
2022-09-25T08:30:50.416Z,82
2022-09-25T08:32:50.453Z,81
2022-09-25T08:34:50.748Z,81
2022-09-25T08:36:50.971Z,81
2022-09-25T08:38:50.914Z,81
2022-09-25T08:40:51.193Z,81
2022-09-25T08:42:50.132Z,81
2022-09-25T08:45:22.657Z,80
2022-09-25T08:46:50.751Z,80
2022-09-25T08:48:50.649Z,80
2022-09-25T08:50:50.733Z,80
2022-09-25T08:52:50.609Z,79
2022-09-25T08:54:50.391Z,79
2022-09-25T08:56:50.561Z,79
2022-09-25T08:58:50.419Z,79
2022-09-25T09:00:50.530Z,80
2022-09-25T09:02:50.660Z,80
2022-09-25T09:04:50.941Z,79
2022-09-25T09:07:28.004Z,79
2022-09-25T09:08:50.307Z,79
2022-09-25T09:10:50.305Z,79
2022-09-25T09:12:50.316Z,79
2022-09-25T09:14:50.164Z,79
2022-09-25T09:16:50.622Z,79
2022-09-25T09:18:50.406Z,79
2022-09-25T09:20:50.316Z,78
2022-09-25T09:22:51.010Z,78
2022-09-25T09:24:50.754Z,78
2022-09-25T09:26:50.954Z,78
2022-09-25T09:28:50.790Z,78
2022-09-25T09:30:50.851Z,78
2022-09-25T09:32:50.823Z,78
2022-09-25T09:35:07.910Z,78
2022-09-25T09:36:50.325Z,78
2022-09-25T09:38:50.191Z,78
2022-09-25T09:40:50.345Z,77
2022-09-25T09:42:50.181Z,77
2022-09-25T09:44:51.010Z,77
2022-09-25T09:46:50.152Z,77
2022-09-25T09:48:51.047Z,77
2022-09-25T09:50:53.756Z,77
2022-09-25T09:52:50.805Z,77
2022-09-25T09:54:50.648Z,77
2022-09-25T09:56:50.949Z,76
2022-09-25T09:58:50.730Z,76
2022-09-25T10:00:50.677Z,76
2022-09-25T10:02:51.474Z,76
2022-09-25T10:04:50.846Z,76
2022-09-25T10:06:50.970Z,76
2022-09-25T10:08:50.882Z,77
2022-09-25T10:10:50.906Z,77
2022-09-25T10:14:51.001Z,75
2022-09-25T10:16:50.047Z,75
2022-09-25T10:18:50.968Z,75
2022-09-25T10:20:51.073Z,75
2022-09-25T10:22:50.844Z,75
2022-09-25T10:24:50.732Z,74
2022-09-25T10:26:50.889Z,75
2022-09-25T10:28:50.759Z,74
2022-09-25T10:30:51.041Z,73
2022-09-25T10:32:58.647Z,73
2022-09-25T10:34:50.151Z,73
2022-09-25T10:36:50.562Z,73
2022-09-25T10:39:43.361Z,73
2022-09-25T10:40:51.195Z,73
2022-09-25T10:42:50.882Z,71
2022-09-25T10:44:58.585Z,71
2022-09-25T10:46:50.865Z,72
2022-09-25T10:48:50.476Z,71
2022-09-25T10:50:50.219Z,71
2022-09-25T10:52:50.282Z,71
2022-09-25T10:54:50.060Z,71
2022-09-25T10:56:50.127Z,71
2022-09-25T10:58:50.184Z,71
2022-09-25T11:00:51.387Z,71
2022-09-25T11:02:50.807Z,71
2022-09-25T11:04:50.116Z,71
2022-09-25T11:06:50.286Z,71
2022-09-25T11:08:50.197Z,71
2022-09-25T11:10:50.201Z,71
2022-09-25T11:12:50.108Z,70
2022-09-25T11:14:50.865Z,70
2022-09-25T11:16:50.417Z,69
2022-09-25T11:18:50.466Z,69
2022-09-25T11:20:50.525Z,69
2022-09-25T11:22:50.301Z,67
2022-09-25T11:24:50.047Z,67
2022-09-25T11:26:50.085Z,67
2022-09-25T11:28:50.061Z,67
2022-09-25T11:30:50.548Z,67
2022-09-25T11:32:53.566Z,67
2022-09-25T11:34:50.845Z,70
2022-09-25T11:36:50.052Z,70
2022-09-25T11:38:51.045Z,72
2022-09-25T11:40:50.365Z,73
2022-09-25T11:42:50.151Z,73
2022-09-25T11:44:50.890Z,75
2022-09-25T11:46:49.994Z,75
2022-09-25T11:48:50.917Z,75
2022-09-25T11:50:50.105Z,76
2022-09-25T11:52:50.822Z,76
2022-09-25T11:54:50.749Z,78
2022-09-25T11:56:50.968Z,78
2022-09-25T11:58:50.768Z,78
2022-09-25T12:00:50.629Z,79
2022-09-25T12:02:50.828Z,79
2022-09-25T12:04:50.155Z,81
2022-09-25T12:06:50.241Z,81
2022-09-25T12:08:50.136Z,81
2022-09-25T12:10:50.937Z,81
2022-09-25T12:12:50.911Z,81
2022-09-25T12:14:50.728Z,82
2022-09-25T12:16:51.077Z,82
2022-09-25T12:18:50.981Z,82
2022-09-25T12:20:50.946Z,82
2022-09-25T12:22:50.607Z,82
2022-09-25T12:24:50.526Z,83
2022-09-25T12:26:50.447Z,83
2022-09-25T12:28:50.202Z,83
2022-09-25T12:30:50.428Z,83
2022-09-25T12:32:50.152Z,83
2022-09-25T12:34:50.441Z,83
2022-09-25T12:36:50.641Z,84
2022-09-25T12:38:50.354Z,84
2022-09-25T12:40:50.670Z,84
2022-09-25T12:42:50.455Z,84
2022-09-25T12:44:50.272Z,84
2022-09-25T12:46:50.284Z,84
2022-09-25T12:48:50.089Z,84
2022-09-25T12:50:50.895Z,84
2022-09-25T12:52:50.859Z,84
2022-09-25T12:54:50.627Z,84
2022-09-25T12:56:50.723Z,84
2022-09-25T12:58:50.767Z,84
2022-09-25T13:00:50.753Z,83
2022-09-25T13:02:50.498Z,84
2022-09-25T13:04:50.898Z,84
2022-09-25T13:06:50.969Z,84
2022-09-25T13:08:50.825Z,84
2022-09-25T13:10:50.749Z,84
2022-09-25T13:12:50.610Z,84
2022-09-25T13:14:50.574Z,84
2022-09-25T13:16:50.815Z,84
2022-09-25T13:18:50.610Z,84
2022-09-25T13:20:50.473Z,84
2022-09-25T13:22:50.504Z,84
2022-09-25T13:24:50.208Z,84
2022-09-25T13:26:50.380Z,84
2022-09-25T13:28:50.064Z,84
2022-09-25T13:30:51.082Z,84
2022-09-25T13:32:50.073Z,84
2022-09-25T13:34:50.511Z,84
2022-09-25T13:36:50.567Z,84
2022-09-25T13:38:50.499Z,84
2022-09-25T13:40:50.389Z,84
2022-09-25T13:42:50.393Z,84
2022-09-25T13:44:50.314Z,84
2022-09-25T13:46:50.383Z,84
2022-09-25T13:48:50.227Z,84
2022-09-25T13:50:50.287Z,84
2022-09-25T13:52:50.921Z,84
2022-09-25T13:54:50.899Z,84
2022-09-25T13:56:50.128Z,84
2022-09-25T13:58:51.014Z,84
2022-09-25T14:00:51.633Z,84
2022-09-25T14:02:50.506Z,84
2022-09-25T14:04:50.685Z,84
2022-09-25T14:06:50.952Z,84
2022-09-25T14:08:50.900Z,84
2022-09-25T14:10:50.759Z,84
2022-09-25T14:12:50.645Z,85
2022-09-25T14:14:50.563Z,85
2022-09-25T14:16:50.546Z,85
2022-09-25T14:18:55.824Z,85
2022-09-25T14:20:50.765Z,85
2022-09-25T14:22:50.621Z,85
2022-09-25T14:24:50.501Z,85
2022-09-25T14:26:50.821Z,85
2022-09-25T14:28:50.653Z,85
2022-09-25T14:30:50.540Z,85
2022-09-25T14:32:56.945Z,85
2022-09-25T14:34:50.331Z,85
2022-09-25T14:36:50.589Z,85
2022-09-25T14:38:50.529Z,85
2022-09-25T14:40:50.654Z,84
2022-09-25T14:42:50.455Z,84
2022-09-25T14:44:50.226Z,84
2022-09-25T14:46:50.465Z,84
2022-09-25T14:48:50.478Z,84
2022-09-25T14:50:50.367Z,84
2022-09-25T14:52:50.270Z,84
2022-09-25T14:54:50.101Z,84
2022-09-25T14:56:50.443Z,84
2022-09-25T14:58:50.151Z,84
2022-09-25T15:00:50.872Z,84
2022-09-25T15:02:51.174Z,83
2022-09-25T15:04:50.610Z,83
2022-09-25T15:06:50.717Z,83
2022-09-25T15:08:50.625Z,84
2022-09-25T15:10:50.586Z,84
2022-09-25T15:12:50.483Z,84
2022-09-25T15:14:50.367Z,84
2022-09-25T15:16:50.939Z,84
2022-09-25T15:18:50.707Z,84
2022-09-25T15:20:50.937Z,83
2022-09-25T15:22:50.768Z,83
2022-09-25T15:24:50.499Z,83
2022-09-25T15:26:50.779Z,83
2022-09-25T15:28:50.742Z,83
2022-09-25T15:30:50.818Z,83
2022-09-25T15:32:50.477Z,83
2022-09-25T15:34:50.859Z,83
2022-09-25T15:36:51.058Z,84
2022-09-25T15:38:50.914Z,84
2022-09-25T15:40:51.386Z,83
2022-09-25T15:42:50.346Z,83
2022-09-25T15:44:50.173Z,84
2022-09-25T15:46:50.479Z,84
2022-09-25T15:48:50.432Z,84
2022-09-25T15:50:50.367Z,84
2022-09-25T15:52:50.962Z,84
2022-09-25T15:54:50.671Z,83
2022-09-25T15:56:50.955Z,83
2022-09-25T15:58:50.742Z,83
2022-09-25T16:00:50.562Z,83
2022-09-25T16:02:53.334Z,83
2022-09-25T16:04:50.941Z,83
2022-09-25T16:06:50.186Z,83
2022-09-25T16:08:51.012Z,83
2022-09-25T16:10:50.931Z,84
2022-09-25T16:12:50.839Z,84
2022-09-25T16:14:50.719Z,84
2022-09-25T16:16:51.029Z,84
2022-09-25T16:18:50.943Z,84
2022-09-25T16:20:50.804Z,84
2022-09-25T16:22:50.615Z,84
2022-09-25T16:24:50.386Z,84
2022-09-25T16:26:50.713Z,84
2022-09-25T16:28:50.469Z,84
2022-09-25T16:30:50.717Z,84
2022-09-25T16:32:50.647Z,84
2022-09-25T16:34:50.178Z,84
2022-09-25T16:36:50.251Z,84
2022-09-25T16:38:50.094Z,84
2022-09-25T16:40:51.438Z,84
2022-09-25T16:42:50.321Z,84
2022-09-25T16:44:50.259Z,84
2022-09-25T16:46:50.672Z,85
2022-09-25T16:48:50.709Z,85
2022-09-25T16:50:50.642Z,85
2022-09-25T16:52:50.599Z,85
2022-09-25T16:54:50.561Z,85
2022-09-25T16:56:50.598Z,85
2022-09-25T16:58:50.484Z,85
2022-09-25T17:00:50.216Z,84
2022-09-25T17:02:51.485Z,85
2022-09-25T17:04:50.634Z,85
2022-09-25T17:06:50.817Z,84
2022-09-25T17:08:50.715Z,84
2022-09-25T17:10:50.540Z,84
2022-09-25T17:12:54.655Z,85
2022-09-25T17:14:50.591Z,84
2022-09-25T17:16:50.538Z,84
2022-09-25T17:18:50.396Z,85
2022-09-25T17:20:50.293Z,85
2022-09-25T17:22:50.241Z,85
2022-09-25T17:24:50.094Z,85
2022-09-25T17:26:50.140Z,85
2022-09-25T17:28:51.017Z,85
2022-09-25T17:30:51.326Z,85
2022-09-25T17:32:50.120Z,85
2022-09-25T17:34:50.596Z,84
2022-09-25T17:36:50.733Z,84
2022-09-25T17:38:50.589Z,84
2022-09-25T17:40:50.850Z,84
2022-09-25T17:42:50.873Z,85
2022-09-25T17:44:50.763Z,85
2022-09-25T17:46:51.645Z,85
2022-09-25T17:48:55.414Z,84
2022-09-25T17:50:50.413Z,84
2022-09-25T17:52:50.274Z,84
2022-09-25T17:54:50.193Z,84
2022-09-25T17:56:50.413Z,84
2022-09-25T17:58:50.294Z,84
2022-09-25T18:00:50.336Z,84
2022-09-25T18:02:50.601Z,85
2022-09-25T18:04:51.034Z,85
2022-09-25T18:06:50.328Z,85
2022-09-25T18:08:50.145Z,85
2022-09-25T18:10:50.975Z,85
2022-09-25T18:12:50.626Z,85
2022-09-25T18:14:50.377Z,85
2022-09-25T18:16:50.549Z,85
2022-09-25T18:18:50.521Z,85
2022-09-25T18:20:50.411Z,85
2022-09-25T18:22:50.068Z,85
2022-09-25T18:24:50.814Z,85
2022-09-25T18:26:50.101Z,85
2022-09-25T18:28:50.724Z,85
2022-09-25T18:30:50.861Z,85
2022-09-25T18:32:50.767Z,85
2022-09-25T18:34:50.129Z,85
2022-09-25T18:36:50.619Z,85
2022-09-25T18:38:50.503Z,85
2022-09-25T18:40:51.069Z,85
2022-09-25T18:42:50.898Z,85
2022-09-25T18:44:50.685Z,85
2022-09-25T18:46:51.369Z,85
2022-09-25T18:48:50.135Z,85
2022-09-25T18:50:50.930Z,85
2022-09-25T18:52:51.036Z,85
2022-09-25T18:54:50.965Z,85
2022-09-25T18:56:50.918Z,85
2022-09-25T18:58:50.848Z,85
2022-09-25T19:00:50.585Z,85
2022-09-25T19:02:51.344Z,85
2022-09-25T19:04:50.475Z,85
2022-09-25T19:06:50.687Z,85
2022-09-25T19:08:50.646Z,85
2022-09-25T19:10:50.453Z,85
2022-09-25T19:12:50.309Z,85
2022-09-25T19:14:51.021Z,85
2022-09-25T19:16:50.920Z,85
2022-09-25T19:18:50.984Z,85
2022-09-25T19:20:50.804Z,85
2022-09-25T19:22:50.519Z,85
2022-09-25T19:24:50.372Z,85
2022-09-25T19:26:50.457Z,85
2022-09-25T19:28:50.230Z,85
2022-09-25T19:30:50.460Z,85
2022-09-25T19:32:50.160Z,85
2022-09-25T19:34:50.459Z,85
2022-09-25T19:36:50.595Z,85
2022-09-25T19:38:50.293Z,85
2022-09-25T19:40:51.554Z,85
2022-09-25T19:42:50.430Z,85
2022-09-25T19:44:50.178Z,85
2022-09-25T19:46:50.845Z,85
2022-09-25T19:48:51.006Z,85
2022-09-25T19:50:50.670Z,85
2022-09-25T19:52:51.866Z,85
2022-09-25T19:54:50.699Z,85
2022-09-25T19:56:50.056Z,85
2022-09-25T19:58:51.285Z,85
2022-09-25T20:00:50.292Z,85
2022-09-25T20:02:50.541Z,85
2022-09-25T20:04:50.649Z,85
2022-09-25T20:06:50.782Z,85
2022-09-25T20:08:50.569Z,85
2022-09-25T20:10:50.629Z,85
2022-09-25T20:12:50.441Z,85
2022-09-25T20:14:50.353Z,85
2022-09-25T20:16:50.772Z,85
2022-09-25T20:18:50.631Z,85
2022-09-25T20:20:50.562Z,85
2022-09-25T20:22:50.452Z,86
2022-09-25T20:24:50.303Z,86
2022-09-25T20:26:50.344Z,86
2022-09-25T20:28:50.065Z,86
2022-09-25T20:30:51.218Z,86
2022-09-25T20:32:50.209Z,86
2022-09-25T20:34:50.768Z,86
2022-09-25T20:36:50.194Z,86
2022-09-25T20:38:51.034Z,86
2022-09-25T20:40:51.271Z,86
2022-09-25T20:42:51.053Z,86
2022-09-25T20:44:50.698Z,86
2022-09-25T20:46:50.654Z,86
2022-09-25T20:48:50.595Z,86
2022-09-25T20:50:50.654Z,86
2022-09-25T20:52:50.579Z,86
2022-09-25T20:54:50.238Z,86
2022-09-25T20:56:50.153Z,86
2022-09-25T20:58:54.298Z,86
2022-09-25T21:00:50.067Z,86
2022-09-25T21:02:51.238Z,86
2022-09-25T21:04:50.585Z,86
2022-09-25T21:06:50.666Z,86
2022-09-25T21:08:50.633Z,86
2022-09-25T21:10:50.446Z,86
2022-09-25T21:12:50.177Z,86
2022-09-25T21:14:50.968Z,86
2022-09-25T21:16:51.519Z,86
2022-09-25T21:18:50.510Z,86
2022-09-25T21:20:50.329Z,86
2022-09-25T21:22:50.377Z,86
2022-09-25T21:24:50.596Z,86
2022-09-25T21:26:50.626Z,86
2022-09-25T21:28:50.253Z,86
2022-09-25T21:30:50.599Z,86
2022-09-25T21:32:50.506Z,86
2022-09-25T21:34:51.008Z,86
2022-09-25T21:36:51.064Z,86
2022-09-25T21:38:51.008Z,86
2022-09-25T21:40:51.350Z,86
2022-09-25T21:42:50.341Z,86
2022-09-25T21:44:50.118Z,86
2022-09-25T21:46:50.263Z,86
2022-09-25T21:48:50.941Z,86
2022-09-25T21:50:50.759Z,86
2022-09-25T21:52:50.645Z,86
2022-09-25T21:54:50.484Z,86
2022-09-25T21:56:50.764Z,86
2022-09-25T21:58:50.643Z,86
2022-09-25T22:00:50.779Z,86
2022-09-25T22:02:51.178Z,86
2022-09-25T22:04:50.570Z,86
2022-09-25T22:06:50.554Z,86
2022-09-25T22:08:50.608Z,86
2022-09-25T22:10:50.396Z,86
2022-09-25T22:12:50.211Z,86
2022-09-25T22:14:50.969Z,86
2022-09-25T22:16:50.573Z,86
2022-09-25T22:18:50.330Z,86
2022-09-25T22:20:50.136Z,86
2022-09-25T22:22:50.850Z,86
2022-09-25T22:24:50.697Z,86
2022-09-25T22:26:51.033Z,86
2022-09-25T22:28:50.820Z,86
2022-09-25T22:30:51.166Z,86
2022-09-25T22:32:50.947Z,86
2022-09-25T22:34:50.326Z,86
2022-09-25T22:37:00.792Z,86
2022-09-25T22:38:50.608Z,86
2022-09-25T22:40:51.205Z,86
2022-09-25T22:42:50.991Z,86
2022-09-25T22:44:50.889Z,86
2022-09-25T22:46:50.169Z,86
2022-09-25T22:48:50.021Z,86
2022-09-25T22:50:50.904Z,86
2022-09-25T22:52:50.099Z,86
2022-09-25T22:54:50.984Z,86
2022-09-25T22:56:50.763Z,86
2022-09-25T22:58:50.664Z,86
2022-09-25T23:00:51.011Z,86
2022-09-25T23:02:50.711Z,86
2022-09-25T23:04:51.367Z,86
2022-09-25T23:06:50.788Z,86
2022-09-25T23:08:50.771Z,86
2022-09-25T23:11:08.917Z,86
2022-09-25T23:12:50.256Z,86
2022-09-25T23:14:50.981Z,86
2022-09-25T23:16:50.760Z,86
2022-09-25T23:18:50.638Z,86
2022-09-25T23:20:50.435Z,86
2022-09-25T23:22:50.308Z,86
2022-09-25T23:24:50.152Z,86
2022-09-25T23:26:50.408Z,86
2022-09-25T23:28:50.453Z,86
2022-09-25T23:30:50.859Z,86
2022-09-25T23:32:50.525Z,86
2022-09-25T23:34:50.769Z,86
2022-09-25T23:36:51.009Z,86
2022-09-25T23:38:50.729Z,86
2022-09-25T23:40:51.078Z,86
2022-09-25T23:42:50.787Z,85
2022-09-25T23:44:50.550Z,85
2022-09-25T23:46:50.777Z,85
2022-09-25T23:48:50.554Z,85
2022-09-25T23:50:50.378Z,85
2022-09-25T23:52:50.272Z,85
2022-09-25T23:54:50.132Z,85
2022-09-25T23:56:50.156Z,85
2022-09-25T23:58:51.022Z,85
